Time;durP1;ratioP1;P1;durP2;ratioP2;P2;SDS_P1;SDS_P2;PMS_P1;PMS_P2;Temp;Humidity;BMP_temperature;BMP_pressure;BME280_temperature;BME280_humidity;BME280_pressure;Samples;Min_cycle;Max_cycle;Signal;HPM_P1;HPM_P2
2023/03/28 00:00:58;;;;;;;1.47;1.37;;;;;;;;;;4414086;32;317773;-89
2023/03/28 00:03:35;;;;;;;1.63;1.27;;;;;;;;;;4404243;32;317072;-89
2023/03/28 00:06:04;;;;;;;1.37;1.20;;;;;;;;;;4414209;32;316586;-88
2023/03/28 00:08:31;;;;;;;5.77;1.20;;;;;;;;;;4398855;32;389043;-84
2023/03/28 00:11:08;;;;;;;1.00;1.00;;;;;;;;;;4413458;32;317331;-85
2023/03/28 00:13:36;;;;;;;1.00;1.00;;;;;;;;;;4402204;32;416391;-88
2023/03/28 00:16:05;;;;;;;1.00;1.00;;;;;;;;;;4419450;32;316570;-89
2023/03/28 00:18:37;;;;;;;1.23;1.13;;;;;;;;;;4398162;32;416182;-78
2023/03/28 00:21:08;;;;;;;1.10;1.00;;;;;;;;;;4422164;32;316403;-81
2023/03/28 00:23:36;;;;;;;2.20;1.33;;;;;;;;;;4431178;32;316984;-80
2023/03/28 00:26:12;;;;;;;2.93;1.10;;;;;;;;;;4430455;32;316658;-78
2023/03/28 00:28:39;;;;;;;1.70;1.40;;;;;;;;;;4409123;32;388705;-82
2023/03/28 00:31:08;;;;;;;2.23;1.20;;;;;;;;;;4404075;32;317314;-82
2023/03/28 00:33:35;;;;;;;1.30;0.80;;;;;;;;;;4418004;32;317374;-78
2023/03/28 00:36:03;;;;;;;1.00;1.00;;;;;;;;;;4419479;32;316651;-85
2023/03/28 00:38:33;;;;;;;1.77;1.30;;;;;;;;;;4394489;32;416005;-81
2023/03/28 00:41:00;;;;;;;1.03;0.93;;;;;;;;;;4414400;32;316743;-84
2023/03/28 00:43:41;;;;;;;0.97;0.90;;;;;;;;;;4404871;32;317429;-79
2023/03/28 00:46:15;;;;;;;1.33;1.00;;;;;;;;;;4408169;32;371298;-78
2023/03/28 00:48:49;;;;;;;0.87;0.87;;;;;;;;;;4420465;32;316588;-79
2023/03/28 00:51:18;;;;;;;1.20;1.10;;;;;;;;;;4403561;32;316488;-88
2023/03/28 00:53:45;;;;;;;1.87;1.27;;;;;;;;;;4414733;32;316713;-82
2023/03/28 00:56:16;;;;;;;1.13;1.03;;;;;;;;;;4403694;32;316649;-87
2023/03/28 00:58:47;;;;;;;1.40;1.30;;;;;;;;;;4416903;32;316634;-79
2023/03/28 01:01:15;;;;;;;1.47;1.10;;;;;;;;;;4412034;32;316348;-80
2023/03/28 01:03:47;;;;;;;1.03;1.00;;;;;;;;;;4426024;32;317427;-83
2023/03/28 01:06:15;;;;;;;1.40;1.13;;;;;;;;;;4405265;32;316860;-89
2023/03/28 01:08:45;;;;;;;2.30;1.20;;;;;;;;;;4414127;32;317265;-84
2023/03/28 01:11:13;;;;;;;1.80;1.07;;;;;;;;;;4402437;32;317145;-84
2023/03/28 01:13:45;;;;;;;1.10;1.00;;;;;;;;;;4412184;32;316967;-86
2023/03/28 01:16:14;;;;;;;1.07;1.03;;;;;;;;;;4401228;32;317035;-84
2023/03/28 01:18:45;;;;;;;1.30;1.20;;;;;;;;;;4412053;32;317463;-89
2023/03/28 01:21:55;;;;;;;2.10;1.50;;;;;;;;;;4400345;32;316579;-86
2023/03/28 01:25:04;;;;;;;1.67;1.20;;;;;;;;;;4405480;32;316973;-82
2023/03/28 01:27:38;;;;;;;2.37;1.30;;;;;;;;;;4395714;32;418955;-86
2023/03/28 01:30:35;;;;;;;2.67;1.47;;;;;;;;;;4403221;32;317506;-86
2023/03/28 01:33:53;;;;;;;2.23;1.47;;;;;;;;;;4411294;32;316436;-86
2023/03/28 01:37:13;;;;;;;1.13;1.03;;;;;;;;;;4400178;32;417283;-88
2023/03/28 01:39:53;;;;;;;1.40;1.30;;;;;;;;;;4399482;32;417770;-88
2023/03/28 01:42:26;;;;;;;3.53;1.07;;;;;;;;;;4403128;32;316411;-85
2023/03/28 01:45:00;;;;;;;1.33;1.13;;;;;;;;;;4412851;32;315389;-78
2023/03/28 01:47:32;;;;;;;1.37;1.20;;;;;;;;;;4401388;32;317306;-82
2023/03/28 01:50:07;;;;;;;1.27;1.17;;;;;;;;;;4413228;32;316663;-86
2023/03/28 01:52:42;;;;;;;4.50;3.57;;;;;;;;;;4383065;32;417423;-87
2023/03/28 01:55:16;;;;;;;3.20;2.33;;;;;;;;;;4386652;32;349858;-87
2023/03/28 01:57:51;;;;;;;1.43;1.33;;;;;;;;;;4396525;32;316441;-82
2023/03/28 02:00:22;;;;;;;1.07;1.00;;;;;;;;;;4390705;32;317218;-88
2023/03/28 02:02:54;;;;;;;1.00;1.00;;;;;;;;;;4396364;32;316627;-85
2023/03/28 02:05:23;;;;;;;1.67;1.17;;;;;;;;;;4386666;32;316523;-90
2023/03/28 02:07:55;;;;;;;1.10;1.00;;;;;;;;;;4396291;32;316859;-88
2023/03/28 02:10:27;;;;;;;0.90;0.90;;;;;;;;;;4399238;32;317181;-79
2023/03/28 02:12:58;;;;;;;1.10;1.00;;;;;;;;;;4395319;32;317461;-86
2023/03/28 02:15:28;;;;;;;1.07;1.03;;;;;;;;;;4386749;32;317258;-84
2023/03/28 02:18:01;;;;;;;1.63;1.40;;;;;;;;;;4397492;32;316618;-85
2023/03/28 02:20:31;;;;;;;1.23;1.13;;;;;;;;;;4387561;32;317132;-86
2023/03/28 02:23:03;;;;;;;1.87;1.10;;;;;;;;;;4397460;32;316479;-86
2023/03/28 02:25:31;;;;;;;1.30;1.20;;;;;;;;;;4373923;32;416611;-86
2023/03/28 02:28:02;;;;;;;1.03;1.00;;;;;;;;;;4387084;32;316220;-84
2023/03/28 02:30:29;;;;;;;2.20;1.30;;;;;;;;;;4387034;32;317574;-85
2023/03/28 02:32:59;;;;;;;1.47;1.10;;;;;;;;;;4401063;32;316773;-88
2023/03/28 02:35:32;;;;;;;1.43;1.30;;;;;;;;;;4402529;32;350865;-85
2023/03/28 02:38:08;;;;;;;1.13;1.03;;;;;;;;;;4415722;32;317260;-84
2023/03/28 02:40:50;;;;;;;1.43;1.20;;;;;;;;;;4398501;32;416512;-85
2023/03/28 02:43:51;;;;;;;1.20;1.10;;;;;;;;;;4389462;32;316666;-88
2023/03/28 02:46:28;;;;;;;1.33;1.23;;;;;;;;;;4404387;32;316574;-79
2023/03/28 02:49:10;;;;;;;2.33;1.73;;;;;;;;;;4414160;32;316644;-88
2023/03/28 02:51:45;;;;;;;1.93;1.60;;;;;;;;;;4402776;32;418016;-87
2023/03/28 02:54:28;;;;;;;3.57;2.60;;;;;;;;;;4405287;32;315482;-86
2023/03/28 02:57:01;;;;;;;5.03;1.90;;;;;;;;;;4415379;32;316180;-80
2023/03/28 02:59:33;;;;;;;1.27;1.13;;;;;;;;;;4405436;32;316192;-87
2023/03/28 03:02:02;;;;;;;2.37;1.37;;;;;;;;;;4413842;32;315635;-88
2023/03/28 03:04:30;;;;;;;2.00;1.20;;;;;;;;;;4392368;32;415031;-82
2023/03/28 03:06:59;;;;;;;1.97;1.60;;;;;;;;;;4413421;32;315508;-89
2023/03/28 03:09:33;;;;;;;1.83;1.60;;;;;;;;;;4388861;32;315401;-87
2023/03/28 03:12:00;;;;;;;3.43;2.00;;;;;;;;;;4414703;32;316406;-83
2023/03/28 03:14:27;;;;;;;2.90;2.10;;;;;;;;;;4405054;32;316681;-88
2023/03/28 03:16:57;;;;;;;1.77;1.60;;;;;;;;;;4414971;32;315759;-84
2023/03/28 03:19:24;;;;;;;2.53;1.43;;;;;;;;;;4404936;32;315465;-83
2023/03/28 03:21:53;;;;;;;4.40;1.23;;;;;;;;;;4415120;32;315899;-82
2023/03/28 03:24:21;;;;;;;1.33;1.23;;;;;;;;;;4403635;32;316282;-89
2023/03/28 03:26:50;;;;;;;1.60;1.40;;;;;;;;;;4414443;32;324246;-86
2023/03/28 03:29:17;;;;;;;1.10;1.10;;;;;;;;;;4402785;32;315973;-85
2023/03/28 03:31:49;;;;;;;1.90;1.63;;;;;;;;;;4413562;32;352168;-88
2023/03/28 03:34:16;;;;;;;1.87;1.67;;;;;;;;;;4390088;32;315589;-88
2023/03/28 03:36:43;;;;;;;2.40;1.63;;;;;;;;;;4409713;32;315565;-85
2023/03/28 03:39:12;;;;;;;1.60;1.50;;;;;;;;;;4404732;32;315644;-86
2023/03/28 03:41:39;;;;;;;3.00;2.03;;;;;;;;;;4414355;32;315468;-85
2023/03/28 03:44:07;;;;;;;4.00;1.67;;;;;;;;;;4407002;32;315638;-80
2023/03/28 03:46:34;;;;;;;2.37;1.70;;;;;;;;;;4413472;32;315393;-88
2023/03/28 03:49:02;;;;;;;2.40;1.90;;;;;;;;;;4422575;32;315673;-78
2023/03/28 03:51:30;;;;;;;2.33;2.07;;;;;;;;;;4413647;32;315819;-83
2023/03/28 03:53:58;;;;;;;2.17;1.97;;;;;;;;;;4416318;32;315430;-82
2023/03/28 03:56:25;;;;;;;2.37;1.80;;;;;;;;;;4405003;32;315390;-84
2023/03/28 03:58:52;;;;;;;2.43;1.80;;;;;;;;;;4413716;32;316366;-90
2023/03/28 04:01:21;;;;;;;2.77;2.03;;;;;;;;;;4406003;32;316147;-80
2023/03/28 04:03:48;;;;;;;1.87;1.73;;;;;;;;;;4426155;32;316393;-78
2023/03/28 04:06:14;;;;;;;1.70;1.60;;;;;;;;;;4413991;32;315795;-87
2023/03/28 04:08:41;;;;;;;2.23;1.80;;;;;;;;;;4417956;32;336933;-81
2023/03/28 04:11:09;;;;;;;2.07;1.70;;;;;;;;;;4398274;32;363656;-89
2023/03/28 04:13:36;;;;;;;2.57;2.27;;;;;;;;;;4418836;32;316605;-85
2023/03/28 04:16:12;;;;;;;6.97;3.63;;;;;;;;;;4417441;32;316222;-92
2023/03/28 04:18:49;;;;;;;2.53;1.73;;;;;;;;;;4411110;32;415473;-77
2023/03/28 04:21:18;;;;;;;3.77;2.00;;;;;;;;;;4423690;32;314991;-77
2023/03/28 04:23:47;;;;;;;4.90;3.40;;;;;;;;;;4428575;32;315315;-77
2023/03/28 04:26:19;;;;;;;1.70;1.50;;;;;;;;;;4415944;32;315583;-77
2023/03/28 04:28:46;;;;;;;12.43;6.20;;;;;;;;;;4422239;32;315436;-81
2023/03/28 04:31:14;;;;;;;4.77;3.23;;;;;;;;;;4411765;32;317019;-78
2023/03/28 04:33:44;;;;;;;4.43;2.70;;;;;;;;;;4411754;32;316439;-77
2023/03/28 04:36:11;;;;;;;3.33;2.30;;;;;;;;;;4404377;32;315408;-78
2023/03/28 04:38:40;;;;;;;4.63;3.03;;;;;;;;;;4421720;32;337422;-77
2023/03/28 04:41:09;;;;;;;3.40;3.10;;;;;;;;;;4410476;32;316095;-77
2023/03/28 04:43:36;;;;;;;8.70;3.43;;;;;;;;;;4418471;32;315447;-79
2023/03/28 04:46:02;;;;;;;5.23;2.80;;;;;;;;;;4423489;32;315441;-81
2023/03/28 04:48:30;;;;;;;5.13;2.90;;;;;;;;;;4409742;32;360128;-78
2023/03/28 04:50:59;;;;;;;3.80;3.40;;;;;;;;;;4417198;32;315391;-77
2023/03/28 04:53:26;;;;;;;6.57;4.63;;;;;;;;;;4404085;32;316344;-82
2023/03/28 04:55:54;;;;;;;6.17;4.20;;;;;;;;;;4413236;32;315538;-82
2023/03/28 04:58:23;;;;;;;7.43;3.03;;;;;;;;;;4402697;32;315552;-81
2023/03/28 05:00:50;;;;;;;6.30;4.53;;;;;;;;;;4413133;32;315606;-86
2023/03/28 05:03:19;;;;;;;7.10;5.33;;;;;;;;;;4402096;32;316199;-81
2023/03/28 05:05:47;;;;;;;9.50;6.87;;;;;;;;;;4408039;32;315145;-82
2023/03/28 05:08:19;;;;;;;10.43;7.43;;;;;;;;;;4400917;32;315326;-88
2023/03/28 05:10:46;;;;;;;10.40;5.13;;;;;;;;;;4405583;32;316398;-87
2023/03/28 05:13:13;;;;;;;7.40;3.87;;;;;;;;;;4390639;32;316708;-85
2023/03/28 05:15:41;;;;;;;4.30;3.90;;;;;;;;;;4393077;32;315563;-83
2023/03/28 05:18:10;;;;;;;4.87;4.13;;;;;;;;;;4383265;32;315563;-82
2023/03/28 05:20:37;;;;;;;3.90;3.50;;;;;;;;;;4405325;32;316245;-81
2023/03/28 05:23:08;;;;;;;6.57;2.63;;;;;;;;;;4394613;32;316456;-82
2023/03/28 05:25:37;;;;;;;4.40;3.97;;;;;;;;;;4396242;32;415019;-82
2023/03/28 05:28:05;;;;;;;4.93;4.17;;;;;;;;;;4407052;32;315305;-82
2023/03/28 05:30:32;;;;;;;6.37;4.00;;;;;;;;;;4394268;32;415467;-78
2023/03/28 05:33:00;;;;;;;7.87;4.20;;;;;;;;;;4402603;32;315234;-81
2023/03/28 05:35:27;;;;;;;7.93;4.47;;;;;;;;;;4386273;32;315573;-80
2023/03/28 05:37:54;;;;;;;10.47;5.63;;;;;;;;;;4405958;32;315986;-79
2023/03/28 05:40:21;;;;;;;8.30;6.13;;;;;;;;;;4389561;32;316477;-79
2023/03/28 05:42:50;;;;;;;7.23;5.50;;;;;;;;;;4400989;32;315618;-78
2023/03/28 05:45:17;;;;;;;6.50;5.00;;;;;;;;;;4398482;32;315454;-78
2023/03/28 05:47:44;;;;;;;9.70;4.13;;;;;;;;;;4409821;32;315438;-84
2023/03/28 05:50:11;;;;;;;7.67;4.47;;;;;;;;;;4400755;32;315665;-82
2023/03/28 05:52:38;;;;;;;12.30;5.10;;;;;;;;;;4412309;32;316238;-82
2023/03/28 05:55:06;;;;;;;6.50;4.90;;;;;;;;;;4402727;32;317267;-80
2023/03/28 05:57:35;;;;;;;9.93;5.13;;;;;;;;;;4412352;32;332082;-82
2023/03/28 06:00:12;;;;;;;9.13;4.07;;;;;;;;;;4410667;32;315453;-87
2023/03/28 06:02:41;;;;;;;6.73;5.30;;;;;;;;;;4400158;32;416707;-83
2023/03/28 06:05:10;;;;;;;9.80;4.77;;;;;;;;;;4384954;32;323042;-82
2023/03/28 06:07:38;;;;;;;5.63;4.90;;;;;;;;;;4395766;32;315549;-80
2023/03/28 06:10:07;;;;;;;6.30;5.10;;;;;;;;;;4387859;32;348957;-82
2023/03/28 06:12:34;;;;;;;6.97;5.23;;;;;;;;;;4398039;32;316095;-81
2023/03/28 06:15:03;;;;;;;6.30;5.37;;;;;;;;;;4398738;32;315421;-80
2023/03/28 06:17:30;;;;;;;11.10;6.67;;;;;;;;;;4385993;32;415708;-83
2023/03/28 06:19:57;;;;;;;12.03;7.93;;;;;;;;;;4404098;32;316961;-83
2023/03/28 06:22:24;;;;;;;8.33;5.87;;;;;;;;;;4399631;32;340851;-83
2023/03/28 06:24:52;;;;;;;9.50;6.37;;;;;;;;;;4413776;32;316259;-81
2023/03/28 06:27:22;;;;;;;8.20;7.23;;;;;;;;;;4404405;32;316526;-80
2023/03/28 06:29:49;;;;;;;7.73;5.13;;;;;;;;;;4415800;32;315447;-81
2023/03/28 06:32:18;;;;;;;5.17;3.80;;;;;;;;;;4404621;32;315640;-83
2023/03/28 06:34:45;;;;;;;5.70;3.83;;;;;;;;;;4417875;32;315478;-80
2023/03/28 06:37:12;;;;;;;5.40;3.97;;;;;;;;;;4412634;32;315918;-84
2023/03/28 06:39:39;;;;;;;6.40;4.60;;;;;;;;;;4420648;32;356124;-80
2023/03/28 06:42:06;;;;;;;8.67;4.13;;;;;;;;;;4411442;32;315965;-82
2023/03/28 06:44:33;;;;;;;7.10;4.30;;;;;;;;;;4423693;32;314991;-79
2023/03/28 06:47:00;;;;;;;5.27;4.30;;;;;;;;;;4422162;32;316318;-80
2023/03/28 06:49:28;;;;;;;5.47;4.40;;;;;;;;;;4411936;32;315394;-81
2023/03/28 06:51:57;;;;;;;9.50;5.60;;;;;;;;;;4421192;32;315261;-80
2023/03/28 06:54:24;;;;;;;6.50;4.93;;;;;;;;;;4411984;32;316238;-80
2023/03/28 06:56:51;;;;;;;6.33;5.00;;;;;;;;;;4421973;32;314600;-79
2023/03/28 06:59:20;;;;;;;7.50;6.23;;;;;;;;;;4408661;32;331770;-81
2023/03/28 07:01:47;;;;;;;6.40;4.60;;;;;;;;;;4410746;32;315976;-82
2023/03/28 07:04:13;;;;;;;6.37;3.50;;;;;;;;;;4403131;32;326556;-80
2023/03/28 07:06:42;;;;;;;5.90;2.50;;;;;;;;;;4413992;32;315804;-81
2023/03/28 07:09:08;;;;;;;10.13;5.80;;;;;;;;;;4401408;32;353118;-84
2023/03/28 07:11:36;;;;;;;8.27;5.60;;;;;;;;;;4414377;32;316559;-84
2023/03/28 07:14:03;;;;;;;5.27;3.50;;;;;;;;;;4413323;32;316219;-80
2023/03/28 07:16:30;;;;;;;10.57;7.10;;;;;;;;;;4399918;32;414945;-83
2023/03/28 07:18:59;;;;;;;6.83;4.00;;;;;;;;;;4413326;32;316616;-84
2023/03/28 07:21:26;;;;;;;4.53;3.67;;;;;;;;;;4403619;32;315690;-84
2023/03/28 07:23:56;;;;;;;4.80;3.93;;;;;;;;;;4413897;32;315546;-83
2023/03/28 07:26:22;;;;;;;10.00;6.50;;;;;;;;;;4401956;32;350130;-83
2023/03/28 07:28:52;;;;;;;11.20;6.60;;;;;;;;;;4413577;32;316979;-82
2023/03/28 07:31:20;;;;;;;8.97;6.23;;;;;;;;;;4404029;32;317075;-84
2023/03/28 07:33:48;;;;;;;13.07;4.60;;;;;;;;;;4413170;32;357208;-81
2023/03/28 07:36:16;;;;;;;6.53;4.23;;;;;;;;;;4401785;32;316488;-82
2023/03/28 07:38:43;;;;;;;6.03;4.20;;;;;;;;;;4414274;32;316100;-82
2023/03/28 07:41:11;;;;;;;2.77;2.20;;;;;;;;;;4404321;32;316142;-80
2023/03/28 07:43:39;;;;;;;25.10;11.73;;;;;;;;;;4414382;32;316265;-82
2023/03/28 07:46:08;;;;;;;6.80;3.60;;;;;;;;;;4403922;32;317963;-81
2023/03/28 07:48:36;;;;;;;7.37;6.33;;;;;;;;;;4412267;32;316008;-83
2023/03/28 07:51:05;;;;;;;7.70;5.63;;;;;;;;;;4412675;32;315668;-82
2023/03/28 07:53:32;;;;;;;25.03;14.37;;;;;;;;;;4400243;32;415393;-82
2023/03/28 07:55:58;;;;;;;25.33;13.20;;;;;;;;;;4412753;32;356978;-82
2023/03/28 07:58:27;;;;;;;17.47;10.20;;;;;;;;;;4403701;32;318417;-82
2023/03/28 08:00:55;;;;;;;5.93;3.67;;;;;;;;;;4412657;32;318006;-83
2023/03/28 08:03:27;;;;;;;12.17;6.67;;;;;;;;;;4405708;32;315708;-83
2023/03/28 08:05:54;;;;;;;9.37;5.83;;;;;;;;;;4413462;32;316592;-82
2023/03/28 08:08:22;;;;;;;5.10;4.27;;;;;;;;;;4404207;32;315993;-84
2023/03/28 08:10:50;;;;;;;3.77;2.80;;;;;;;;;;4414794;32;316339;-81
2023/03/28 08:13:18;;;;;;;4.57;2.47;;;;;;;;;;4404982;32;315467;-84
2023/03/28 08:15:50;;;;;;;7.80;3.33;;;;;;;;;;4425216;32;315498;-82
2023/03/28 08:18:19;;;;;;;3.40;2.70;;;;;;;;;;4422028;32;315947;-80
2023/03/28 08:20:46;;;;;;;13.27;5.20;;;;;;;;;;4426230;32;314632;-80
2023/03/28 08:23:15;;;;;;;34.23;13.13;;;;;;;;;;4408755;32;317198;-80
2023/03/28 08:25:42;;;;;;;24.03;13.07;;;;;;;;;;4413329;32;317912;-81
2023/03/28 08:28:14;;;;;;;17.20;9.60;;;;;;;;;;4402588;32;318452;-79
2023/03/28 08:30:41;;;;;;;12.90;8.30;;;;;;;;;;4410709;32;316491;-79
2023/03/28 08:33:09;;;;;;;7.20;5.53;;;;;;;;;;4404583;32;317124;-80
2023/03/28 08:35:39;;;;;;;7.80;5.43;;;;;;;;;;4413000;32;315814;-80
2023/03/28 08:38:06;;;;;;;17.23;12.03;;;;;;;;;;4402077;32;315683;-80
2023/03/28 08:40:37;;;;;;;16.00;9.93;;;;;;;;;;4413092;32;318487;-81
2023/03/28 08:43:16;;;;;;;17.83;10.10;;;;;;;;;;4412433;32;316670;-81
2023/03/28 08:45:51;;;;;;;19.47;9.10;;;;;;;;;;4400125;32;418582;-80
2023/03/28 08:48:24;;;;;;;15.70;11.50;;;;;;;;;;4402822;32;317201;-79
2023/03/28 08:50:58;;;;;;;18.67;12.20;;;;;;;;;;4411070;32;318612;-80
2023/03/28 08:53:33;;;;;;;14.80;8.90;;;;;;;;;;4396413;32;317451;-80
2023/03/28 08:56:03;;;;;;;15.97;9.73;;;;;;;;;;4413742;32;316403;-80
2023/03/28 08:58:38;;;;;;;15.17;8.83;;;;;;;;;;4408662;32;316506;-81
2023/03/28 09:01:09;;;;;;;9.93;5.50;;;;;;;;;;4401993;32;317551;-79
2023/03/28 09:03:37;;;;;;;6.07;3.93;;;;;;;;;;4412613;32;316241;-82
2023/03/28 09:06:11;;;;;;;6.43;4.50;;;;;;;;;;4412595;32;316162;-81
2023/03/28 09:09:17;;;;;;;12.17;4.20;;;;;;;;;;4398834;32;415379;-81
2023/03/28 09:11:59;;;;;;;16.60;7.23;;;;;;;;;;4396447;32;418444;-80
2023/03/28 09:14:51;;;;;;;6.47;4.90;;;;;;;;;;4404194;32;316461;-81
2023/03/28 09:17:28;;;;;;;10.53;6.57;;;;;;;;;;4402033;32;335794;-84
2023/03/28 09:20:10;;;;;;;9.47;5.40;;;;;;;;;;4410860;32;317428;-80
2023/03/28 09:22:47;;;;;;;6.57;4.40;;;;;;;;;;4384388;32;387680;-79
2023/03/28 09:25:29;;;;;;;19.27;8.63;;;;;;;;;;4387857;32;316071;-81
2023/03/28 09:28:08;;;;;;;13.47;7.67;;;;;;;;;;4394585;32;316619;-81
2023/03/28 09:30:39;;;;;;;12.77;7.27;;;;;;;;;;4374789;32;417539;-80
2023/03/28 09:33:11;;;;;;;7.27;6.27;;;;;;;;;;4387724;32;367621;-81
2023/03/28 09:35:41;;;;;;;8.27;4.80;;;;;;;;;;4402249;32;315545;-81
2023/03/28 09:38:18;;;;;;;7.60;5.07;;;;;;;;;;4401275;32;316089;-81
2023/03/28 09:40:46;;;;;;;10.83;5.03;;;;;;;;;;4413210;32;316563;-82
2023/03/28 09:43:21;;;;;;;5.23;4.33;;;;;;;;;;4404080;32;317133;-80
2023/03/28 09:45:57;;;;;;;10.03;4.13;;;;;;;;;;4418582;32;315505;-80
2023/03/28 09:48:27;;;;;;;5.70;4.00;;;;;;;;;;4404742;32;316994;-80
2023/03/28 09:50:59;;;;;;;6.07;3.87;;;;;;;;;;4414809;32;316431;-80
2023/03/28 09:53:28;;;;;;;5.03;3.77;;;;;;;;;;4405332;32;316074;-81
2023/03/28 09:55:59;;;;;;;5.57;4.47;;;;;;;;;;4416014;32;315384;-80
2023/03/28 09:58:26;;;;;;;9.63;4.13;;;;;;;;;;4405780;32;316528;-81
2023/03/28 10:00:56;;;;;;;18.77;5.33;;;;;;;;;;4418524;32;315845;-81
2023/03/28 10:03:31;;;;;;;4.27;3.47;;;;;;;;;;4406299;32;317208;-83
2023/03/28 10:06:01;;;;;;;8.23;4.40;;;;;;;;;;4414283;32;315700;-83
2023/03/28 10:08:31;;;;;;;4.80;3.40;;;;;;;;;;4404654;32;315959;-82
2023/03/28 10:11:03;;;;;;;5.90;3.40;;;;;;;;;;4414514;32;316762;-83
2023/03/28 10:13:37;;;;;;;10.90;4.37;;;;;;;;;;4405786;32;315656;-81
2023/03/28 10:16:06;;;;;;;5.90;4.77;;;;;;;;;;4418247;32;317338;-80
2023/03/28 10:18:33;;;;;;;5.30;3.67;;;;;;;;;;4401839;32;417354;-81
2023/03/28 10:21:13;;;;;;;8.57;3.90;;;;;;;;;;4414287;32;316373;-81
2023/03/28 10:23:44;;;;;;;8.27;3.23;;;;;;;;;;4401079;32;415569;-81
2023/03/28 10:26:15;;;;;;;9.10;4.53;;;;;;;;;;4405132;32;331614;-80
2023/03/28 10:28:43;;;;;;;5.20;3.97;;;;;;;;;;4412906;32;316291;-81
2023/03/28 10:31:22;;;;;;;4.70;3.30;;;;;;;;;;4406135;32;315418;-80
2023/03/28 10:33:52;;;;;;;6.40;3.77;;;;;;;;;;4420572;32;315662;-82
2023/03/28 10:36:30;;;;;;;6.27;3.37;;;;;;;;;;4408758;32;315748;-82
2023/03/28 10:38:58;;;;;;;9.53;3.00;;;;;;;;;;4410357;32;315845;-81
2023/03/28 10:41:26;;;;;;;6.30;3.23;;;;;;;;;;4405610;32;316070;-82
2023/03/28 10:43:54;;;;;;;3.83;2.70;;;;;;;;;;4414890;32;316220;-82
2023/03/28 10:46:24;;;;;;;6.90;3.00;;;;;;;;;;4403629;32;315395;-81
2023/03/28 10:48:53;;;;;;;6.30;3.47;;;;;;;;;;4413943;32;316399;-82
2023/03/28 10:51:23;;;;;;;8.87;3.80;;;;;;;;;;4395838;32;343600;-82
2023/03/28 10:54:19;;;;;;;2.37;2.17;;;;;;;;;;4424317;32;315453;-82
2023/03/28 10:56:51;;;;;;;6.03;3.50;;;;;;;;;;4401718;32;417768;-81
2023/03/28 10:59:33;;;;;;;4.90;3.53;;;;;;;;;;4405578;32;315693;-83
2023/03/28 11:02:16;;;;;;;4.70;3.40;;;;;;;;;;4414923;32;315799;-83
2023/03/28 11:04:57;;;;;;;9.10;4.63;;;;;;;;;;4402098;32;416470;-79
2023/03/28 11:07:32;;;;;;;4.30;3.30;;;;;;;;;;4405063;32;315420;-83
2023/03/28 11:10:11;;;;;;;5.27;3.43;;;;;;;;;;4415043;32;315670;-81
2023/03/28 11:12:50;;;;;;;4.40;3.53;;;;;;;;;;4400222;32;416283;-83
2023/03/28 11:15:24;;;;;;;4.83;2.93;;;;;;;;;;4403893;32;315725;-81
2023/03/28 11:18:01;;;;;;;2.80;2.50;;;;;;;;;;4413576;32;315742;-83
2023/03/28 11:20:44;;;;;;;3.70;2.80;;;;;;;;;;4405083;32;316074;-82
2023/03/28 11:23:35;;;;;;;4.33;2.73;;;;;;;;;;4403511;32;316101;-80
2023/03/28 11:26:09;;;;;;;3.93;2.77;;;;;;;;;;4411948;32;315493;-81
2023/03/28 11:28:49;;;;;;;5.27;4.00;;;;;;;;;;4402323;32;416078;-83
2023/03/28 11:31:20;;;;;;;4.03;3.13;;;;;;;;;;4403567;32;316311;-82
2023/03/28 11:33:55;;;;;;;4.97;3.50;;;;;;;;;;4414613;32;315300;-81
2023/03/28 11:36:28;;;;;;;8.33;4.10;;;;;;;;;;4404238;32;316340;-81
2023/03/28 11:39:01;;;;;;;9.23;4.87;;;;;;;;;;4413445;32;316371;-81
2023/03/28 11:41:34;;;;;;;11.50;4.87;;;;;;;;;;4403093;32;351249;-80
2023/03/28 11:44:07;;;;;;;7.63;4.20;;;;;;;;;;4417325;32;317251;-83
2023/03/28 11:46:39;;;;;;;5.40;4.00;;;;;;;;;;4402278;32;416700;-82
2023/03/28 11:49:16;;;;;;;13.80;7.77;;;;;;;;;;4404262;32;315239;-81
2023/03/28 11:51:48;;;;;;;5.43;4.30;;;;;;;;;;4409357;32;316514;-83
2023/03/28 11:54:19;;;;;;;12.17;6.83;;;;;;;;;;4411416;32;316473;-82
2023/03/28 11:56:54;;;;;;;22.23;14.37;;;;;;;;;;4412486;32;344767;-83
2023/03/28 11:59:26;;;;;;;17.80;9.77;;;;;;;;;;4404255;32;317439;-81
2023/03/28 12:02:01;;;;;;;10.20;5.00;;;;;;;;;;4414568;32;317319;-81
2023/03/28 12:04:32;;;;;;;15.67;8.47;;;;;;;;;;4403121;32;316729;-83
2023/03/28 12:07:11;;;;;;;10.70;7.23;;;;;;;;;;4413274;32;316732;-82
2023/03/28 12:09:47;;;;;;;6.90;3.97;;;;;;;;;;4403877;32;417727;-82
2023/03/28 12:12:19;;;;;;;12.43;6.63;;;;;;;;;;4419573;32;316574;-81
2023/03/28 12:14:53;;;;;;;6.63;4.10;;;;;;;;;;4431931;32;317067;-82
2023/03/28 12:17:24;;;;;;;7.10;3.40;;;;;;;;;;4412622;32;317398;-80
2023/03/28 12:19:52;;;;;;;5.63;3.83;;;;;;;;;;4417864;32;317504;-79
2023/03/28 12:22:25;;;;;;;6.10;3.63;;;;;;;;;;4407068;32;316510;-80
2023/03/28 12:24:59;;;;;;;4.33;3.90;;;;;;;;;;4411912;32;315781;-80
2023/03/28 12:27:41;;;;;;;8.27;4.50;;;;;;;;;;4410299;32;315385;-81
2023/03/28 12:30:19;;;;;;;7.03;4.60;;;;;;;;;;4403681;32;363915;-81
2023/03/28 12:32:53;;;;;;;6.73;3.03;;;;;;;;;;4414826;32;315413;-80
2023/03/28 12:35:23;;;;;;;4.80;2.90;;;;;;;;;;4404015;32;316431;-79
2023/03/28 12:38:01;;;;;;;4.43;3.83;;;;;;;;;;4414954;32;316033;-78
2023/03/28 12:40:38;;;;;;;9.47;4.60;;;;;;;;;;4407204;32;315561;-78
2023/03/28 12:43:07;;;;;;;18.60;9.03;;;;;;;;;;4424913;32;315842;-79
2023/03/28 12:45:42;;;;;;;14.17;9.50;;;;;;;;;;4410701;32;416545;-81
2023/03/28 12:48:16;;;;;;;5.90;4.10;;;;;;;;;;4409922;32;317413;-79
2023/03/28 12:50:48;;;;;;;5.83;4.13;;;;;;;;;;4412929;32;315834;-80
2023/03/28 12:53:16;;;;;;;6.13;4.13;;;;;;;;;;4403868;32;315558;-78
2023/03/28 12:55:48;;;;;;;14.90;9.30;;;;;;;;;;4409298;32;316016;-78
2023/03/28 12:58:26;;;;;;;13.47;6.20;;;;;;;;;;4393742;32;316733;-79
2023/03/28 13:01:04;;;;;;;8.57;3.63;;;;;;;;;;4418090;32;316416;-80
2023/03/28 13:03:37;;;;;;;5.50;2.93;;;;;;;;;;4386899;32;416856;-80
2023/03/28 13:06:18;;;;;;;4.53;3.10;;;;;;;;;;4406150;32;315332;-80
2023/03/28 13:08:59;;;;;;;7.07;4.10;;;;;;;;;;4399099;32;416546;-80
2023/03/28 13:11:35;;;;;;;4.97;3.03;;;;;;;;;;4404238;32;315723;-82
2023/03/28 13:14:15;;;;;;;14.77;7.67;;;;;;;;;;4413320;32;315797;-82
2023/03/28 13:16:46;;;;;;;17.73;9.67;;;;;;;;;;4389485;32;417287;-79
2023/03/28 13:19:15;;;;;;;4.17;3.53;;;;;;;;;;4401490;32;316524;-81
2023/03/28 13:21:44;;;;;;;13.13;7.63;;;;;;;;;;4411629;32;315669;-83
2023/03/28 13:24:30;;;;;;;17.63;9.47;;;;;;;;;;4400916;32;317240;-88
2023/03/28 13:26:58;;;;;;;10.33;6.13;;;;;;;;;;4413287;32;316432;-82
2023/03/28 13:29:44;;;;;;;11.80;6.87;;;;;;;;;;4399224;32;347950;-83
2023/03/28 13:32:14;;;;;;;6.97;4.13;;;;;;;;;;4389297;32;316496;-83
2023/03/28 13:34:47;;;;;;;6.63;3.97;;;;;;;;;;4397304;32;315743;-83
2023/03/28 13:37:20;;;;;;;3.03;2.50;;;;;;;;;;4401937;32;315701;-84
2023/03/28 13:39:51;;;;;;;5.53;4.00;;;;;;;;;;4412966;32;315635;-83
2023/03/28 13:42:30;;;;;;;5.17;3.70;;;;;;;;;;4403043;32;335797;-82
2023/03/28 13:45:02;;;;;;;8.17;5.90;;;;;;;;;;4411455;32;315969;-81
2023/03/28 13:47:34;;;;;;;8.17;5.30;;;;;;;;;;4400172;32;334887;-82
2023/03/28 13:50:05;;;;;;;8.57;5.13;;;;;;;;;;4412099;32;316277;-82
2023/03/28 13:52:32;;;;;;;10.37;7.13;;;;;;;;;;4399089;32;414979;-82
2023/03/28 13:55:15;;;;;;;11.17;6.20;;;;;;;;;;4412490;32;329229;-80
2023/03/28 13:57:42;;;;;;;12.33;8.63;;;;;;;;;;4397039;32;418900;-81
2023/03/28 14:00:16;;;;;;;8.50;5.90;;;;;;;;;;4402214;32;334182;-79
2023/03/28 14:02:46;;;;;;;7.77;4.20;;;;;;;;;;4409860;32;316441;-80
2023/03/28 14:05:18;;;;;;;5.10;4.00;;;;;;;;;;4402295;32;316362;-81
2023/03/28 14:07:48;;;;;;;3.10;2.53;;;;;;;;;;4412495;32;316637;-81
2023/03/28 14:10:28;;;;;;;3.87;2.53;;;;;;;;;;4402854;32;316609;-81
2023/03/28 14:12:57;;;;;;;4.07;2.60;;;;;;;;;;4411814;32;345077;-80
2023/03/28 14:15:29;;;;;;;4.60;3.77;;;;;;;;;;4401958;32;316669;-81
2023/03/28 14:17:57;;;;;;;8.20;3.67;;;;;;;;;;4411349;32;317047;-81
2023/03/28 14:20:25;;;;;;;8.17;6.10;;;;;;;;;;4402142;32;317148;-83
2023/03/28 14:22:52;;;;;;;12.47;6.07;;;;;;;;;;4413023;32;317191;-85
2023/03/28 14:25:20;;;;;;;4.17;3.40;;;;;;;;;;4401103;32;317386;-88
2023/03/28 14:27:50;;;;;;;4.57;2.60;;;;;;;;;;4411584;32;316187;-83
2023/03/28 14:30:20;;;;;;;7.67;3.70;;;;;;;;;;4403423;32;316259;-84
2023/03/28 14:32:57;;;;;;;6.70;4.63;;;;;;;;;;4414373;32;316181;-86
2023/03/28 14:35:26;;;;;;;10.77;5.40;;;;;;;;;;4399668;32;338304;-83
2023/03/28 14:37:55;;;;;;;20.57;14.37;;;;;;;;;;4414264;32;315604;-79
2023/03/28 14:40:29;;;;;;;4.80;3.13;;;;;;;;;;4399315;32;351346;-82
2023/03/28 14:43:03;;;;;;;3.07;2.50;;;;;;;;;;4406339;32;315714;-80
2023/03/28 14:45:33;;;;;;;7.83;2.87;;;;;;;;;;4409447;32;315401;-80
2023/03/28 14:48:04;;;;;;;3.93;3.40;;;;;;;;;;4413214;32;316054;-86
2023/03/28 14:50:36;;;;;;;4.20;3.17;;;;;;;;;;4401293;32;413419;-83
2023/03/28 14:53:04;;;;;;;6.47;2.70;;;;;;;;;;4415396;32;316277;-81